sensor_id;sensor_type;location;lat;lon;timestamp;temperature;humidity
65207;SHT31;58477;48.072;11.970;2023-12-22T00:01:06;3.34;99.99
65207;SHT31;58477;48.072;11.970;2023-12-22T00:03:31;3.23;99.99
65207;SHT31;58477;48.072;11.970;2023-12-22T00:05:57;3.20;99.99
65207;SHT31;58477;48.072;11.970;2023-12-22T00:08:22;2.97;99.96
65207;SHT31;58477;48.072;11.970;2023-12-22T00:10:49;2.79;99.99
65207;SHT31;58477;48.072;11.970;2023-12-22T00:13:14;2.82;99.99
65207;SHT31;58477;48.072;11.970;2023-12-22T00:15:40;2.71;99.40
65207;SHT31;58477;48.072;11.970;2023-12-22T00:18:07;2.59;99.00
65207;SHT31;58477;48.072;11.970;2023-12-22T00:20:33;2.54;99.64
65207;SHT31;58477;48.072;11.970;2023-12-22T00:22:58;2.18;99.57
65207;SHT31;58477;48.072;11.970;2023-12-22T00:25:24;1.93;99.99
65207;SHT31;58477;48.072;11.970;2023-12-22T00:27:49;1.61;99.99
65207;SHT31;58477;48.072;11.970;2023-12-22T00:30:14;1.46;99.99
65207;SHT31;58477;48.072;11.970;2023-12-22T00:32:40;1.22;99.99
65207;SHT31;58477;48.072;11.970;2023-12-22T00:35:05;1.10;99.99
65207;SHT31;58477;48.072;11.970;2023-12-22T00:37:31;1.04;99.99
65207;SHT31;58477;48.072;11.970;2023-12-22T00:39:56;0.96;99.99
65207;SHT31;58477;48.072;11.970;2023-12-22T00:42:22;1.00;99.99
65207;SHT31;58477;48.072;11.970;2023-12-22T00:44:47;0.93;99.99
65207;SHT31;58477;48.072;11.970;2023-12-22T00:47:12;0.99;99.99
65207;SHT31;58477;48.072;11.970;2023-12-22T00:49:38;1.03;99.99
65207;SHT31;58477;48.072;11.970;2023-12-22T00:52:04;1.10;99.99
65207;SHT31;58477;48.072;11.970;2023-12-22T00:54:30;1.13;99.99
65207;SHT31;58477;48.072;11.970;2023-12-22T00:56:57;1.07;99.99
65207;SHT31;58477;48.072;11.970;2023-12-22T00:59:23;1.13;99.99
65207;SHT31;58477;48.072;11.970;2023-12-22T01:01:49;1.17;99.99
65207;SHT31;58477;48.072;11.970;2023-12-22T01:04:14;1.16;99.99
65207;SHT31;58477;48.072;11.970;2023-12-22T01:06:40;1.20;99.99
65207;SHT31;58477;48.072;11.970;2023-12-22T01:09:06;1.19;99.99
65207;SHT31;58477;48.072;11.970;2023-12-22T01:11:31;1.15;99.99
65207;SHT31;58477;48.072;11.970;2023-12-22T01:13:56;1.15;99.99
65207;SHT31;58477;48.072;11.970;2023-12-22T01:16:22;1.17;99.99
65207;SHT31;58477;48.072;11.970;2023-12-22T01:18:49;1.20;99.99
65207;SHT31;58477;48.072;11.970;2023-12-22T01:21:16;1.10;99.99
65207;SHT31;58477;48.072;11.970;2023-12-22T01:23:41;1.20;99.99
65207;SHT31;58477;48.072;11.970;2023-12-22T01:26:07;1.19;99.99
65207;SHT31;58477;48.072;11.970;2023-12-22T01:28:33;1.29;99.99
65207;SHT31;58477;48.072;11.970;2023-12-22T01:30:59;1.23;99.99
65207;SHT31;58477;48.072;11.970;2023-12-22T01:33:24;1.24;99.99
65207;SHT31;58477;48.072;11.970;2023-12-22T01:35:49;1.27;99.99
65207;SHT31;58477;48.072;11.970;2023-12-22T01:38:15;1.24;99.99
65207;SHT31;58477;48.072;11.970;2023-12-22T01:40:40;1.24;99.99
65207;SHT31;58477;48.072;11.970;2023-12-22T01:43:06;1.24;99.99
65207;SHT31;58477;48.072;11.970;2023-12-22T01:45:31;1.23;99.99
65207;SHT31;58477;48.072;11.970;2023-12-22T01:47:57;1.19;99.99
65207;SHT31;58477;48.072;11.970;2023-12-22T01:50:23;1.15;99.99
65207;SHT31;58477;48.072;11.970;2023-12-22T01:52:48;1.09;99.99
65207;SHT31;58477;48.072;11.970;2023-12-22T01:55:14;1.10;99.99
65207;SHT31;58477;48.072;11.970;2023-12-22T01:57:43;1.15;99.99
65207;SHT31;58477;48.072;11.970;2023-12-22T02:00:09;1.07;99.99
65207;SHT31;58477;48.072;11.970;2023-12-22T02:02:39;1.12;99.99
65207;SHT31;58477;48.072;11.970;2023-12-22T02:05:06;1.00;99.99
65207;SHT31;58477;48.072;11.970;2023-12-22T02:07:34;0.88;99.99
65207;SHT31;58477;48.072;11.970;2023-12-22T02:10:00;0.89;99.99
65207;SHT31;58477;48.072;11.970;2023-12-22T02:12:25;0.88;99.99
65207;SHT31;58477;48.072;11.970;2023-12-22T02:14:51;0.88;99.99
65207;SHT31;58477;48.072;11.970;2023-12-22T02:20:11;0.88;99.99
65207;SHT31;58477;48.072;11.970;2023-12-22T02:22:36;0.92;99.99
65207;SHT31;58477;48.072;11.970;2023-12-22T02:25:02;0.92;99.99
65207;SHT31;58477;48.072;11.970;2023-12-22T02:32:32;0.78;99.99
65207;SHT31;58477;48.072;11.970;2023-12-22T02:34:58;0.73;99.99
65207;SHT31;58477;48.072;11.970;2023-12-22T02:37:28;0.66;99.99
65207;SHT31;58477;48.072;11.970;2023-12-22T02:39:54;0.66;99.99
65207;SHT31;58477;48.072;11.970;2023-12-22T02:42:21;0.66;99.99
65207;SHT31;58477;48.072;11.970;2023-12-22T02:44:50;0.72;99.99
65207;SHT31;58477;48.072;11.970;2023-12-22T02:51:03;0.85;99.99
65207;SHT31;58477;48.072;11.970;2023-12-22T02:53:29;0.90;99.99
65207;SHT31;58477;48.072;11.970;2023-12-22T02:55:54;0.92;99.99
65207;SHT31;58477;48.072;11.970;2023-12-22T02:58:19;0.96;99.99
65207;SHT31;58477;48.072;11.970;2023-12-22T03:00:45;0.96;99.99
65207;SHT31;58477;48.072;11.970;2023-12-22T03:03:11;0.93;99.99
65207;SHT31;58477;48.072;11.970;2023-12-22T03:05:36;0.97;99.99
65207;SHT31;58477;48.072;11.970;2023-12-22T03:08:02;0.95;99.99
65207;SHT31;58477;48.072;11.970;2023-12-22T03:10:29;1.02;99.99
65207;SHT31;58477;48.072;11.970;2023-12-22T03:12:54;0.97;99.99
65207;SHT31;58477;48.072;11.970;2023-12-22T03:15:19;1.02;99.99
65207;SHT31;58477;48.072;11.970;2023-12-22T03:17:45;1.02;99.99
65207;SHT31;58477;48.072;11.970;2023-12-22T03:20:10;1.02;99.99
65207;SHT31;58477;48.072;11.970;2023-12-22T03:22:35;1.03;99.99
65207;SHT31;58477;48.072;11.970;2023-12-22T03:25:01;1.06;99.99
65207;SHT31;58477;48.072;11.970;2023-12-22T03:27:26;1.03;99.99
65207;SHT31;58477;48.072;11.970;2023-12-22T03:29:52;1.09;99.99
65207;SHT31;58477;48.072;11.970;2023-12-22T03:32:17;1.10;99.99
65207;SHT31;58477;48.072;11.970;2023-12-22T03:34:43;1.07;99.99
65207;SHT31;58477;48.072;11.970;2023-12-22T03:37:08;0.99;99.99
65207;SHT31;58477;48.072;11.970;2023-12-22T03:39:33;0.97;99.99
65207;SHT31;58477;48.072;11.970;2023-12-22T03:41:59;0.96;99.99
65207;SHT31;58477;48.072;11.970;2023-12-22T03:44:24;0.93;99.99
65207;SHT31;58477;48.072;11.970;2023-12-22T03:46:49;0.96;99.99
65207;SHT31;58477;48.072;11.970;2023-12-22T03:49:16;0.96;99.99
65207;SHT31;58477;48.072;11.970;2023-12-22T03:51:42;0.95;99.99
65207;SHT31;58477;48.072;11.970;2023-12-22T03:54:07;0.93;99.99
65207;SHT31;58477;48.072;11.970;2023-12-22T03:56:33;1.02;99.99
65207;SHT31;58477;48.072;11.970;2023-12-22T03:58:58;0.96;99.99
65207;SHT31;58477;48.072;11.970;2023-12-22T04:01:24;1.03;99.99
65207;SHT31;58477;48.072;11.970;2023-12-22T04:03:49;1.06;99.99
65207;SHT31;58477;48.072;11.970;2023-12-22T04:06:15;1.06;99.99
65207;SHT31;58477;48.072;11.970;2023-12-22T04:08:40;1.13;99.99
65207;SHT31;58477;48.072;11.970;2023-12-22T04:11:05;1.15;99.99
65207;SHT31;58477;48.072;11.970;2023-12-22T04:13:32;1.17;99.99
65207;SHT31;58477;48.072;11.970;2023-12-22T04:15:57;1.23;99.99
65207;SHT31;58477;48.072;11.970;2023-12-22T04:18:23;1.27;99.99
65207;SHT31;58477;48.072;11.970;2023-12-22T04:20:48;1.19;99.99
65207;SHT31;58477;48.072;11.970;2023-12-22T04:23:16;1.17;99.99
65207;SHT31;58477;48.072;11.970;2023-12-22T04:25:42;1.16;99.99
65207;SHT31;58477;48.072;11.970;2023-12-22T04:28:07;1.30;99.99
65207;SHT31;58477;48.072;11.970;2023-12-22T04:30:32;1.33;99.99
65207;SHT31;58477;48.072;11.970;2023-12-22T04:32:58;1.43;99.99
65207;SHT31;58477;48.072;11.970;2023-12-22T04:35:23;1.54;99.99
65207;SHT31;58477;48.072;11.970;2023-12-22T04:37:49;1.67;99.99
65207;SHT31;58477;48.072;11.970;2023-12-22T04:40:14;1.82;99.99
65207;SHT31;58477;48.072;11.970;2023-12-22T04:42:39;1.89;99.99
65207;SHT31;58477;48.072;11.970;2023-12-22T04:45:05;1.91;99.99
65207;SHT31;58477;48.072;11.970;2023-12-22T04:47:30;1.94;99.99
65207;SHT31;58477;48.072;11.970;2023-12-22T04:49:56;1.95;99.99
65207;SHT31;58477;48.072;11.970;2023-12-22T04:52:21;1.97;99.99
65207;SHT31;58477;48.072;11.970;2023-12-22T04:54:47;2.08;99.99
65207;SHT31;58477;48.072;11.970;2023-12-22T04:57:12;2.08;99.99
65207;SHT31;58477;48.072;11.970;2023-12-22T04:59:38;2.21;99.99
65207;SHT31;58477;48.072;11.970;2023-12-22T05:02:03;2.50;99.99
65207;SHT31;58477;48.072;11.970;2023-12-22T05:04:29;2.72;99.99
65207;SHT31;58477;48.072;11.970;2023-12-22T05:06:54;2.86;99.99
65207;SHT31;58477;48.072;11.970;2023-12-22T05:09:19;2.97;99.99
65207;SHT31;58477;48.072;11.970;2023-12-22T05:11:45;3.07;99.99
65207;SHT31;58477;48.072;11.970;2023-12-22T05:14:10;3.14;99.85
65207;SHT31;58477;48.072;11.970;2023-12-22T05:16:36;3.27;99.52
65207;SHT31;58477;48.072;11.970;2023-12-22T05:19:02;3.23;99.64
65207;SHT31;58477;48.072;11.970;2023-12-22T05:21:27;3.20;99.79
65207;SHT31;58477;48.072;11.970;2023-12-22T05:23:53;3.17;99.60
65207;SHT31;58477;48.072;11.970;2023-12-22T05:26:22;3.28;99.33
65207;SHT31;58477;48.072;11.970;2023-12-22T05:28:48;3.40;98.51
65207;SHT31;58477;48.072;11.970;2023-12-22T05:31:16;3.50;98.54
65207;SHT31;58477;48.072;11.970;2023-12-22T05:33:42;3.65;97.70
65207;SHT31;58477;48.072;11.970;2023-12-22T05:36:08;3.75;97.70
65207;SHT31;58477;48.072;11.970;2023-12-22T05:38:37;3.78;97.62
65207;SHT31;58477;48.072;11.970;2023-12-22T05:41:02;3.86;97.22
65207;SHT31;58477;48.072;11.970;2023-12-22T05:43:28;3.91;97.10
65207;SHT31;58477;48.072;11.970;2023-12-22T05:45:54;3.96;97.10
65207;SHT31;58477;48.072;11.970;2023-12-22T05:48:19;3.86;97.59
65207;SHT31;58477;48.072;11.970;2023-12-22T05:50:47;4.03;96.89
65207;SHT31;58477;48.072;11.970;2023-12-22T05:53:13;3.99;97.25
65207;SHT31;58477;48.072;11.970;2023-12-22T05:55:38;3.93;97.57
65207;SHT31;58477;48.072;11.970;2023-12-22T05:58:03;4.01;97.54
65207;SHT31;58477;48.072;11.970;2023-12-22T06:00:29;4.01;97.29
65207;SHT31;58477;48.072;11.970;2023-12-22T06:02:54;4.06;97.31
65207;SHT31;58477;48.072;11.970;2023-12-22T06:05:20;4.03;97.63
65207;SHT31;58477;48.072;11.970;2023-12-22T06:07:46;3.78;98.87
65207;SHT31;58477;48.072;11.970;2023-12-22T06:10:12;3.41;98.41
65207;SHT31;58477;48.072;11.970;2023-12-22T06:12:37;2.93;98.35
65207;SHT31;58477;48.072;11.970;2023-12-22T06:15:03;2.36;99.36
65207;SHT31;58477;48.072;11.970;2023-12-22T06:17:29;2.07;99.99
65207;SHT31;58477;48.072;11.970;2023-12-22T06:19:54;1.94;99.99
65207;SHT31;58477;48.072;11.970;2023-12-22T06:22:19;1.75;99.99
65207;SHT31;58477;48.072;11.970;2023-12-22T06:24:45;1.77;99.99
65207;SHT31;58477;48.072;11.970;2023-12-22T06:27:11;1.71;99.99
65207;SHT31;58477;48.072;11.970;2023-12-22T06:29:38;1.55;99.99
65207;SHT31;58477;48.072;11.970;2023-12-22T06:32:03;1.43;99.99
65207;SHT31;58477;48.072;11.970;2023-12-22T06:34:31;1.37;99.99
65207;SHT31;58477;48.072;11.970;2023-12-22T06:36:57;1.54;99.99
65207;SHT31;58477;48.072;11.970;2023-12-22T06:39:22;1.70;99.99
65207;SHT31;58477;48.072;11.970;2023-12-22T06:41:48;1.94;99.99
65207;SHT31;58477;48.072;11.970;2023-12-22T06:44:13;2.05;99.99
65207;SHT31;58477;48.072;11.970;2023-12-22T06:46:38;2.24;99.99
65207;SHT31;58477;48.072;11.970;2023-12-22T06:49:04;2.45;99.99
65207;SHT31;58477;48.072;11.970;2023-12-22T06:51:31;2.54;99.99
65207;SHT31;58477;48.072;11.970;2023-12-22T06:53:57;2.72;99.99
65207;SHT31;58477;48.072;11.970;2023-12-22T06:56:26;2.73;99.99
65207;SHT31;58477;48.072;11.970;2023-12-22T06:58:53;2.69;99.99
65207;SHT31;58477;48.072;11.970;2023-12-22T07:03:46;2.90;99.99
65207;SHT31;58477;48.072;11.970;2023-12-22T07:06:11;2.90;99.99
65207;SHT31;58477;48.072;11.970;2023-12-22T07:08:36;2.83;99.99
65207;SHT31;58477;48.072;11.970;2023-12-22T07:11:02;2.86;99.99
65207;SHT31;58477;48.072;11.970;2023-12-22T07:13:27;2.96;99.99
65207;SHT31;58477;48.072;11.970;2023-12-22T07:15:53;3.08;99.99
65207;SHT31;58477;48.072;11.970;2023-12-22T07:18:18;3.21;99.99
65207;SHT31;58477;48.072;11.970;2023-12-22T07:20:43;3.28;99.99
65207;SHT31;58477;48.072;11.970;2023-12-22T07:23:10;3.40;99.99
65207;SHT31;58477;48.072;11.970;2023-12-22T07:25:36;3.57;99.99
65207;SHT31;58477;48.072;11.970;2023-12-22T07:28:04;3.65;99.99
65207;SHT31;58477;48.072;11.970;2023-12-22T07:30:29;3.88;99.99
65207;SHT31;58477;48.072;11.970;2023-12-22T07:32:55;3.99;99.76
65207;SHT31;58477;48.072;11.970;2023-12-22T07:35:20;3.95;98.60
65207;SHT31;58477;48.072;11.970;2023-12-22T07:37:45;3.44;99.99
65207;SHT31;58477;48.072;11.970;2023-12-22T07:40:11;3.13;99.99
65207;SHT31;58477;48.072;11.970;2023-12-22T07:42:37;2.96;99.99
65207;SHT31;58477;48.072;11.970;2023-12-22T07:45:04;2.99;99.99
65207;SHT31;58477;48.072;11.970;2023-12-22T07:47:30;2.89;99.99
65207;SHT31;58477;48.072;11.970;2023-12-22T07:49:55;2.86;99.99
65207;SHT31;58477;48.072;11.970;2023-12-22T07:52:20;2.82;99.99
65207;SHT31;58477;48.072;11.970;2023-12-22T07:54:46;2.69;99.99
65207;SHT31;58477;48.072;11.970;2023-12-22T07:57:12;2.46;99.99
65207;SHT31;58477;48.072;11.970;2023-12-22T07:59:38;2.39;99.99
65207;SHT31;58477;48.072;11.970;2023-12-22T08:02:03;2.36;99.99
65207;SHT31;58477;48.072;11.970;2023-12-22T08:04:29;2.39;99.99
65207;SHT31;58477;48.072;11.970;2023-12-22T08:06:54;2.42;99.99
65207;SHT31;58477;48.072;11.970;2023-12-22T08:09:19;2.45;99.99
65207;SHT31;58477;48.072;11.970;2023-12-22T08:11:45;2.46;99.99
65207;SHT31;58477;48.072;11.970;2023-12-22T08:14:12;2.32;99.99
65207;SHT31;58477;48.072;11.970;2023-12-22T08:16:37;1.98;99.99
65207;SHT31;58477;48.072;11.970;2023-12-22T08:19:03;1.58;99.99
65207;SHT31;58477;48.072;11.970;2023-12-22T08:21:28;1.40;99.99
65207;SHT31;58477;48.072;11.970;2023-12-22T08:23:54;1.34;99.99
65207;SHT31;58477;48.072;11.970;2023-12-22T08:26:19;1.37;99.99
65207;SHT31;58477;48.072;11.970;2023-12-22T08:28:44;1.51;99.99
65207;SHT31;58477;48.072;11.970;2023-12-22T08:31:10;1.63;99.99
65207;SHT31;58477;48.072;11.970;2023-12-22T08:33:37;1.67;99.99
65207;SHT31;58477;48.072;11.970;2023-12-22T08:36:06;1.88;99.99
65207;SHT31;58477;48.072;11.970;2023-12-22T08:38:31;1.98;99.99
65207;SHT31;58477;48.072;11.970;2023-12-22T08:40:57;1.95;99.99
65207;SHT31;58477;48.072;11.970;2023-12-22T08:43:22;1.94;99.99
65207;SHT31;58477;48.072;11.970;2023-12-22T08:45:48;2.01;99.99
65207;SHT31;58477;48.072;11.970;2023-12-22T08:48:13;2.01;99.99
65207;SHT31;58477;48.072;11.970;2023-12-22T08:50:38;2.02;99.99
65207;SHT31;58477;48.072;11.970;2023-12-22T08:53:04;2.08;99.99
65207;SHT31;58477;48.072;11.970;2023-12-22T08:55:29;2.15;99.99
65207;SHT31;58477;48.072;11.970;2023-12-22T08:57:54;2.36;99.99
65207;SHT31;58477;48.072;11.970;2023-12-22T09:00:20;2.36;99.99
65207;SHT31;58477;48.072;11.970;2023-12-22T09:02:45;2.49;99.99
65207;SHT31;58477;48.072;11.970;2023-12-22T09:05:11;2.50;99.99
65207;SHT31;58477;48.072;11.970;2023-12-22T09:07:36;2.62;99.99
65207;SHT31;58477;48.072;11.970;2023-12-22T09:10:02;2.69;99.99
65207;SHT31;58477;48.072;11.970;2023-12-22T09:12:28;3.08;99.99
65207;SHT31;58477;48.072;11.970;2023-12-22T09:14:54;3.16;99.99
65207;SHT31;58477;48.072;11.970;2023-12-22T09:17:19;3.42;99.99
65207;SHT31;58477;48.072;11.970;2023-12-22T09:19:44;3.61;99.99
65207;SHT31;58477;48.072;11.970;2023-12-22T09:22:10;3.72;99.99
65207;SHT31;58477;48.072;11.970;2023-12-22T09:24:35;3.85;99.99
65207;SHT31;58477;48.072;11.970;2023-12-22T09:27:02;3.95;99.99
65207;SHT31;58477;48.072;11.970;2023-12-22T09:29:31;4.03;99.99
65207;SHT31;58477;48.072;11.970;2023-12-22T09:32:01;4.16;99.99
65207;SHT31;58477;48.072;11.970;2023-12-22T09:34:26;4.54;99.66
65207;SHT31;58477;48.072;11.970;2023-12-22T09:36:53;4.54;98.88
65207;SHT31;58477;48.072;11.970;2023-12-22T09:39:19;4.67;98.61
65207;SHT31;58477;48.072;11.970;2023-12-22T09:41:48;4.87;98.00
65207;SHT31;58477;48.072;11.970;2023-12-22T09:44:17;4.66;98.53
65207;SHT31;58477;48.072;11.970;2023-12-22T09:46:43;4.63;98.56
65207;SHT31;58477;48.072;11.970;2023-12-22T09:49:09;4.59;99.00
65207;SHT31;58477;48.072;11.970;2023-12-22T09:51:35;4.61;98.45
65207;SHT31;58477;48.072;11.970;2023-12-22T09:54:02;4.63;98.19
65207;SHT31;58477;48.072;11.970;2023-12-22T09:56:29;4.63;98.38
65207;SHT31;58477;48.072;11.970;2023-12-22T09:58:56;4.71;97.79
65207;SHT31;58477;48.072;11.970;2023-12-22T10:01:21;4.71;98.11
65207;SHT31;58477;48.072;11.970;2023-12-22T10:03:48;4.83;96.89
65207;SHT31;58477;48.072;11.970;2023-12-22T10:06:14;4.74;97.65
65207;SHT31;58477;48.072;11.970;2023-12-22T10:08:41;4.74;98.01
65207;SHT31;58477;48.072;11.970;2023-12-22T10:11:08;4.77;97.88
65207;SHT31;58477;48.072;11.970;2023-12-22T10:13:36;4.69;98.41
65207;SHT31;58477;48.072;11.970;2023-12-22T10:16:03;4.64;98.18
65207;SHT31;58477;48.072;11.970;2023-12-22T10:18:29;4.63;97.88
65207;SHT31;58477;48.072;11.970;2023-12-22T10:20:55;4.54;98.29
65207;SHT31;58477;48.072;11.970;2023-12-22T10:23:20;4.40;99.07
65207;SHT31;58477;48.072;11.970;2023-12-22T10:25:45;4.36;99.62
65207;SHT31;58477;48.072;11.970;2023-12-22T10:28:11;4.32;99.22
65207;SHT31;58477;48.072;11.970;2023-12-22T10:30:40;4.22;99.89
65207;SHT31;58477;48.072;11.970;2023-12-22T10:33:06;4.20;99.99
65207;SHT31;58477;48.072;11.970;2023-12-22T10:35:32;4.09;99.99
65207;SHT31;58477;48.072;11.970;2023-12-22T10:37:58;3.96;99.99
65207;SHT31;58477;48.072;11.970;2023-12-22T10:40:25;3.81;99.99
65207;SHT31;58477;48.072;11.970;2023-12-22T10:42:51;3.71;99.99
65207;SHT31;58477;48.072;11.970;2023-12-22T10:45:18;3.57;99.99
65207;SHT31;58477;48.072;11.970;2023-12-22T10:47:43;3.42;99.99
65207;SHT31;58477;48.072;11.970;2023-12-22T10:50:12;3.45;99.99
65207;SHT31;58477;48.072;11.970;2023-12-22T10:52:38;3.41;99.99
65207;SHT31;58477;48.072;11.970;2023-12-22T10:55:04;3.41;99.99
65207;SHT31;58477;48.072;11.970;2023-12-22T10:57:31;3.34;99.99
65207;SHT31;58477;48.072;11.970;2023-12-22T11:00:03;3.34;99.99
65207;SHT31;58477;48.072;11.970;2023-12-22T11:02:31;3.31;99.99
65207;SHT31;58477;48.072;11.970;2023-12-22T11:05:01;3.31;99.99
65207;SHT31;58477;48.072;11.970;2023-12-22T11:07:28;3.35;99.99
65207;SHT31;58477;48.072;11.970;2023-12-22T11:09:56;3.37;99.99
65207;SHT31;58477;48.072;11.970;2023-12-22T11:12:23;3.41;99.99
65207;SHT31;58477;48.072;11.970;2023-12-22T11:14:50;3.48;99.99
65207;SHT31;58477;48.072;11.970;2023-12-22T11:17:21;3.55;99.99
65207;SHT31;58477;48.072;11.970;2023-12-22T11:19:49;3.61;99.99
65207;SHT31;58477;48.072;11.970;2023-12-22T11:22:16;3.68;99.99
65207;SHT31;58477;48.072;11.970;2023-12-22T11:24:43;3.71;99.99
65207;SHT31;58477;48.072;11.970;2023-12-22T11:27:10;3.86;99.99
65207;SHT31;58477;48.072;11.970;2023-12-22T11:29:40;3.92;99.99
65207;SHT31;58477;48.072;11.970;2023-12-22T11:32:09;4.01;99.99
65207;SHT31;58477;48.072;11.970;2023-12-22T11:34:36;4.07;99.99
65207;SHT31;58477;48.072;11.970;2023-12-22T11:37:03;4.17;99.99
65207;SHT31;58477;48.072;11.970;2023-12-22T11:39:32;4.28;99.99
65207;SHT31;58477;48.072;11.970;2023-12-22T11:41:58;4.37;99.99
65207;SHT31;58477;48.072;11.970;2023-12-22T11:44:23;4.50;99.99
65207;SHT31;58477;48.072;11.970;2023-12-22T11:47:09;4.56;99.99
65207;SHT31;58477;48.072;11.970;2023-12-22T11:49:38;4.60;99.99
65207;SHT31;58477;48.072;11.970;2023-12-22T11:52:14;4.59;99.99
65207;SHT31;58477;48.072;11.970;2023-12-22T11:54:51;4.64;99.99
65207;SHT31;58477;48.072;11.970;2023-12-22T12:02:26;4.69;99.99
65207;SHT31;58477;48.072;11.970;2023-12-22T12:04:53;4.66;99.99
65207;SHT31;58477;48.072;11.970;2023-12-22T12:07:48;4.59;99.99
65207;SHT31;58477;48.072;11.970;2023-12-22T12:13:09;4.56;99.99
65207;SHT31;58477;48.072;11.970;2023-12-22T12:15:35;4.53;99.99
65207;SHT31;58477;48.072;11.970;2023-12-22T12:18:01;4.50;99.99
65207;SHT31;58477;48.072;11.970;2023-12-22T12:20:27;4.53;99.99
65207;SHT31;58477;48.072;11.970;2023-12-22T12:22:53;4.57;99.99
65207;SHT31;58477;48.072;11.970;2023-12-22T12:25:22;4.60;99.99
65207;SHT31;58477;48.072;11.970;2023-12-22T12:27:51;4.57;99.99
65207;SHT31;58477;48.072;11.970;2023-12-22T12:30:26;4.61;99.99
65207;SHT31;58477;48.072;11.970;2023-12-22T12:32:51;4.59;99.99
65207;SHT31;58477;48.072;11.970;2023-12-22T12:35:18;4.69;99.99
65207;SHT31;58477;48.072;11.970;2023-12-22T12:37:44;4.71;99.99
65207;SHT31;58477;48.072;11.970;2023-12-22T12:40:11;4.70;99.99
65207;SHT31;58477;48.072;11.970;2023-12-22T12:42:36;4.71;99.99
65207;SHT31;58477;48.072;11.970;2023-12-22T12:45:07;4.73;99.99
65207;SHT31;58477;48.072;11.970;2023-12-22T12:47:33;4.71;99.99
65207;SHT31;58477;48.072;11.970;2023-12-22T12:50:02;4.79;99.99
65207;SHT31;58477;48.072;11.970;2023-12-22T12:52:28;4.76;99.99
65207;SHT31;58477;48.072;11.970;2023-12-22T12:54:54;4.70;99.99
65207;SHT31;58477;48.072;11.970;2023-12-22T12:57:20;4.74;99.99
65207;SHT31;58477;48.072;11.970;2023-12-22T12:59:50;4.76;99.99
65207;SHT31;58477;48.072;11.970;2023-12-22T13:02:19;4.71;99.99
65207;SHT31;58477;48.072;11.970;2023-12-22T13:04:46;4.76;99.99
65207;SHT31;58477;48.072;11.970;2023-12-22T13:07:11;4.80;99.99
65207;SHT31;58477;48.072;11.970;2023-12-22T13:09:40;4.73;99.99
65207;SHT31;58477;48.072;11.970;2023-12-22T13:12:07;4.85;99.99
65207;SHT31;58477;48.072;11.970;2023-12-22T13:14:33;4.85;99.99
65207;SHT31;58477;48.072;11.970;2023-12-22T13:16:59;4.84;99.99
65207;SHT31;58477;48.072;11.970;2023-12-22T13:19:25;4.85;99.99
65207;SHT31;58477;48.072;11.970;2023-12-22T13:21:53;4.85;99.99
65207;SHT31;58477;48.072;11.970;2023-12-22T13:24:18;4.91;99.81
65207;SHT31;58477;48.072;11.970;2023-12-22T13:26:44;4.92;99.99
65207;SHT31;58477;48.072;11.970;2023-12-22T13:29:11;4.80;99.99
65207;SHT31;58477;48.072;11.970;2023-12-22T13:31:41;4.83;99.99
65207;SHT31;58477;48.072;11.970;2023-12-22T13:34:09;4.80;99.99
65207;SHT31;58477;48.072;11.970;2023-12-22T13:36:34;4.73;99.99
65207;SHT31;58477;48.072;11.970;2023-12-22T13:39:02;4.71;99.99
65207;SHT31;58477;48.072;11.970;2023-12-22T13:41:38;4.70;99.99
65207;SHT31;58477;48.072;11.970;2023-12-22T13:44:04;4.69;99.99
65207;SHT31;58477;48.072;11.970;2023-12-22T13:46:32;4.61;99.99
65207;SHT31;58477;48.072;11.970;2023-12-22T13:48:58;4.54;99.99
65207;SHT31;58477;48.072;11.970;2023-12-22T13:51:24;4.59;99.99
65207;SHT31;58477;48.072;11.970;2023-12-22T13:53:50;4.50;99.99
65207;SHT31;58477;48.072;11.970;2023-12-22T13:56:15;4.47;99.99
65207;SHT31;58477;48.072;11.970;2023-12-22T13:58:47;4.50;99.99
65207;SHT31;58477;48.072;11.970;2023-12-22T14:01:14;4.47;99.99
65207;SHT31;58477;48.072;11.970;2023-12-22T14:03:41;4.53;99.99
65207;SHT31;58477;48.072;11.970;2023-12-22T14:06:06;4.49;99.99
65207;SHT31;58477;48.072;11.970;2023-12-22T14:08:34;4.50;99.99
65207;SHT31;58477;48.072;11.970;2023-12-22T14:11:00;4.47;99.99
65207;SHT31;58477;48.072;11.970;2023-12-22T14:13:26;4.53;99.99
65207;SHT31;58477;48.072;11.970;2023-12-22T14:15:52;4.54;99.99
65207;SHT31;58477;48.072;11.970;2023-12-22T14:18:18;4.60;99.99
65207;SHT31;58477;48.072;11.970;2023-12-22T14:20:43;4.56;99.99
65207;SHT31;58477;48.072;11.970;2023-12-22T14:23:11;4.63;99.99
65207;SHT31;58477;48.072;11.970;2023-12-22T14:25:41;4.66;99.99
65207;SHT31;58477;48.072;11.970;2023-12-22T14:28:07;4.70;99.99
65207;SHT31;58477;48.072;11.970;2023-12-22T14:30:32;4.70;99.99
65207;SHT31;58477;48.072;11.970;2023-12-22T14:32:59;4.73;99.99
65207;SHT31;58477;48.072;11.970;2023-12-22T14:35:25;4.71;99.99
65207;SHT31;58477;48.072;11.970;2023-12-22T14:37:50;4.70;99.99
65207;SHT31;58477;48.072;11.970;2023-12-22T14:40:16;4.74;99.99
65207;SHT31;58477;48.072;11.970;2023-12-22T14:42:41;4.76;99.99
65207;SHT31;58477;48.072;11.970;2023-12-22T14:45:07;4.84;99.99
65207;SHT31;58477;48.072;11.970;2023-12-22T14:47:32;4.81;99.99
65207;SHT31;58477;48.072;11.970;2023-12-22T14:49:58;4.90;99.99
65207;SHT31;58477;48.072;11.970;2023-12-22T14:52:29;4.84;99.99
65207;SHT31;58477;48.072;11.970;2023-12-22T14:54:54;4.91;99.99
65207;SHT31;58477;48.072;11.970;2023-12-22T14:57:20;4.90;99.99
65207;SHT31;58477;48.072;11.970;2023-12-22T14:59:46;4.97;99.99
65207;SHT31;58477;48.072;11.970;2023-12-22T15:02:11;5.02;99.99
65207;SHT31;58477;48.072;11.970;2023-12-22T15:04:36;5.00;99.99
65207;SHT31;58477;48.072;11.970;2023-12-22T15:07:02;5.07;99.99
65207;SHT31;58477;48.072;11.970;2023-12-22T15:09:28;5.02;99.99
65207;SHT31;58477;48.072;11.970;2023-12-22T15:11:54;5.04;99.99
65207;SHT31;58477;48.072;11.970;2023-12-22T15:14:20;5.05;99.99
65207;SHT31;58477;48.072;11.970;2023-12-22T15:16:47;5.12;99.99
65207;SHT31;58477;48.072;11.970;2023-12-22T15:19:13;5.11;99.99
65207;SHT31;58477;48.072;11.970;2023-12-22T15:21:39;5.11;99.99
65207;SHT31;58477;48.072;11.970;2023-12-22T15:24:06;5.12;99.99
65207;SHT31;58477;48.072;11.970;2023-12-22T15:26:31;5.25;99.99
65207;SHT31;58477;48.072;11.970;2023-12-22T15:28:59;5.20;99.99
65207;SHT31;58477;48.072;11.970;2023-12-22T15:31:25;5.17;99.99
65207;SHT31;58477;48.072;11.970;2023-12-22T15:33:50;5.20;99.99
65207;SHT31;58477;48.072;11.970;2023-12-22T15:36:19;5.20;99.99
65207;SHT31;58477;48.072;11.970;2023-12-22T15:38:48;5.15;99.99
65207;SHT31;58477;48.072;11.970;2023-12-22T15:41:13;5.25;99.99
65207;SHT31;58477;48.072;11.970;2023-12-22T15:43:39;5.18;99.99
65207;SHT31;58477;48.072;11.970;2023-12-22T15:46:08;5.22;99.99